createdAt,value
2017-10-20T00:02:08.638Z,17.90
2017-10-20T00:04:35.840Z,18.80
2017-10-20T00:07:02.285Z,14.90
2017-10-20T00:09:28.756Z,18.57
2017-10-20T00:11:55.160Z,10.47
2017-10-20T00:14:21.585Z,16.40
2017-10-20T00:16:48.032Z,13.83
2017-10-20T00:19:14.581Z,12.53
2017-10-20T00:21:41.112Z,11.60
2017-10-20T00:24:08.337Z,14.07
2017-10-20T00:26:34.776Z,16.53
2017-10-20T00:29:01.244Z,12.97
2017-10-20T00:31:27.667Z,13.23
2017-10-20T00:33:54.117Z,11.83
2017-10-20T00:36:20.655Z,13.37
2017-10-20T00:38:47.158Z,18.70
2017-10-20T00:41:14.320Z,19.40
2017-10-20T00:43:41.471Z,14.77
2017-10-20T00:46:08.136Z,14.10
2017-10-20T00:48:34.744Z,15.70
2017-10-20T00:51:01.216Z,14.63
2017-10-20T00:53:27.681Z,12.53
2017-10-20T00:55:54.131Z,12.50
2017-10-20T00:58:20.574Z,17.83
2017-10-20T01:00:47.802Z,18.73
2017-10-20T01:03:14.360Z,16.17
2017-10-20T01:05:40.864Z,13.20
2017-10-20T01:08:07.247Z,16.97
2017-10-20T01:10:33.708Z,14.93
2017-10-20T01:13:00.135Z,12.80
2017-10-20T01:15:27.324Z,13.93
2017-10-20T01:17:53.872Z,14.27
2017-10-20T01:20:20.527Z,12.17
2017-10-20T01:22:46.996Z,13.40
2017-10-20T01:25:13.400Z,13.77
2017-10-20T01:27:39.915Z,13.83
2017-10-20T01:30:06.332Z,16.17
2017-10-20T01:32:32.852Z,13.60
2017-10-20T01:34:59.295Z,12.00
2017-10-20T01:37:26.449Z,14.33
2017-10-20T01:39:53.144Z,16.40
2017-10-20T01:42:19.619Z,12.40
2017-10-20T01:44:46.056Z,14.43
2017-10-20T01:47:12.540Z,15.80
2017-10-20T01:49:38.994Z,14.10
2017-10-20T01:52:05.405Z,13.33
2017-10-20T01:54:31.928Z,16.50
2017-10-20T01:56:58.355Z,12.60
2017-10-20T01:59:24.804Z,12.73
2017-10-20T02:01:51.568Z,11.27
2017-10-20T02:04:17.987Z,12.47
2017-10-20T02:06:45.135Z,12.97
2017-10-20T02:09:12.313Z,14.00
2017-10-20T02:11:38.963Z,17.00
2017-10-20T02:14:05.441Z,14.33
2017-10-20T02:16:31.956Z,11.90
2017-10-20T02:18:58.380Z,16.53
2017-10-20T02:21:25.545Z,14.80
2017-10-20T02:23:52.732Z,13.73
2017-10-20T02:26:20.248Z,15.00
2017-10-20T02:28:46.669Z,10.80
2017-10-20T02:31:13.140Z,14.50
2017-10-20T02:33:39.552Z,15.83
2017-10-20T02:36:06.046Z,12.30
2017-10-20T02:38:32.516Z,12.37
2017-10-20T02:40:58.908Z,16.07
2017-10-20T02:43:25.557Z,14.03
2017-10-20T02:45:52.136Z,15.50
2017-10-20T02:48:18.594Z,13.43
2017-10-20T02:50:45.301Z,14.07
2017-10-20T02:53:11.752Z,11.77
2017-10-20T02:55:39.140Z,12.60
2017-10-20T02:58:05.640Z,13.20
2017-10-20T03:00:32.095Z,11.20
2017-10-20T03:02:58.520Z,12.50
2017-10-20T03:05:24.976Z,11.40
2017-10-20T03:07:51.451Z,12.17
2017-10-20T03:10:17.836Z,11.10
2017-10-20T03:12:44.261Z,13.03
2017-10-20T03:15:10.724Z,12.63
2017-10-20T03:17:37.250Z,12.90
2017-10-20T03:20:03.688Z,13.63
2017-10-20T03:22:30.104Z,10.83
2017-10-20T03:24:56.656Z,13.50
2017-10-20T03:27:23.140Z,12.83
2017-10-20T03:29:49.647Z,14.13
2017-10-20T03:32:16.784Z,10.93
2017-10-20T03:34:43.255Z,10.73
2017-10-20T03:37:10.379Z,16.90
2017-10-20T03:39:36.809Z,13.40
2017-10-20T03:42:04.096Z,15.10
2017-10-20T03:44:30.542Z,17.40
2017-10-20T03:46:57.708Z,14.07
2017-10-20T03:49:24.859Z,15.63
2017-10-20T03:51:52.220Z,15.93
2017-10-20T03:54:18.647Z,19.57
2017-10-20T03:56:45.057Z,10.90
2017-10-20T03:59:11.468Z,15.17
2017-10-20T04:01:38.166Z,13.40
2017-10-20T04:04:05.396Z,19.80
2017-10-20T04:06:31.843Z,16.53
2017-10-20T04:08:59.092Z,16.10
2017-10-20T04:11:25.597Z,19.33
2017-10-20T04:13:51.991Z,16.93
2017-10-20T04:16:18.387Z,22.73
2017-10-20T04:18:44.872Z,18.00
2017-10-20T04:21:11.464Z,17.87
2017-10-20T04:23:37.904Z,18.17
2017-10-20T04:26:04.344Z,16.20
2017-10-20T04:28:30.772Z,15.03
2017-10-20T04:30:57.245Z,17.57
2017-10-20T04:33:23.647Z,17.47
2017-10-20T04:35:50.049Z,19.23
2017-10-20T04:38:16.435Z,14.70
2017-10-20T04:40:43.087Z,19.50
2017-10-20T04:43:09.595Z,17.73
2017-10-20T04:45:36.015Z,14.70
2017-10-20T04:48:02.530Z,16.20
2017-10-20T04:50:28.978Z,15.13
2017-10-20T04:52:55.516Z,16.40
2017-10-20T04:55:22.684Z,16.87
2017-10-20T04:57:49.900Z,19.23
2017-10-20T05:00:17.137Z,18.80
2017-10-20T05:02:43.536Z,17.63
2017-10-20T05:05:09.985Z,15.83
2017-10-20T05:07:37.138Z,14.70
2017-10-20T05:10:04.307Z,15.47
2017-10-20T05:12:30.740Z,16.90
2017-10-20T05:14:57.112Z,25.70
2017-10-20T05:17:23.559Z,17.93
2017-10-20T05:19:49.981Z,16.73
2017-10-20T05:22:16.383Z,25.53
2017-10-20T05:24:42.820Z,18.00
2017-10-20T05:27:09.302Z,16.40
2017-10-20T05:29:35.806Z,14.90
2017-10-20T05:32:02.977Z,17.50
2017-10-20T05:34:29.511Z,16.97
2017-10-20T05:36:56.700Z,14.80
2017-10-20T05:39:23.903Z,19.27
2017-10-20T05:41:50.345Z,14.67
2017-10-20T05:44:16.757Z,15.57
2017-10-20T05:46:43.209Z,20.13
2017-10-20T05:49:09.686Z,16.47
2017-10-20T05:51:37.929Z,17.60
2017-10-20T05:54:04.384Z,23.93
2017-10-20T05:56:30.822Z,20.63
2017-10-20T05:58:57.994Z,18.80
2017-10-20T06:01:25.116Z,17.50
2017-10-20T06:03:51.608Z,19.50
2017-10-20T06:06:18.042Z,16.60
2017-10-20T06:08:46.231Z,18.50
2017-10-20T06:11:12.683Z,15.77
2017-10-20T06:13:39.135Z,19.47
2017-10-20T06:16:05.589Z,21.03
2017-10-20T06:18:33.839Z,18.30
2017-10-20T06:21:00.275Z,19.83
2017-10-20T06:23:26.748Z,21.37
2017-10-20T06:25:53.984Z,20.27
2017-10-20T06:28:20.457Z,19.80
2017-10-20T06:30:46.871Z,19.00
2017-10-20T06:33:13.307Z,16.70
2017-10-20T06:35:39.684Z,18.73
2017-10-20T06:38:06.132Z,27.03
2017-10-20T06:40:32.579Z,21.10
2017-10-20T06:42:58.951Z,25.90
2017-10-20T06:45:25.230Z,21.90
2017-10-20T06:47:51.574Z,23.57
2017-10-20T06:50:17.902Z,24.10
2017-10-20T06:52:44.947Z,29.17
2017-10-20T06:55:12.014Z,22.33
2017-10-20T06:57:38.375Z,28.77
2017-10-20T07:00:04.674Z,25.03
2017-10-20T07:02:31.758Z,31.23
2017-10-20T07:04:58.110Z,27.23
2017-10-20T07:07:24.438Z,29.50
2017-10-20T07:09:50.787Z,23.87
2017-10-20T07:12:17.846Z,25.13
2017-10-20T07:14:44.169Z,32.53
2017-10-20T07:17:10.519Z,24.13
2017-10-20T07:19:38.855Z,29.30
2017-10-20T07:22:05.970Z,31.20
2017-10-20T07:24:32.307Z,26.67
2017-10-20T07:26:58.622Z,29.33
2017-10-20T07:29:24.999Z,28.47
2017-10-20T07:31:51.565Z,26.90
2017-10-20T07:34:18.611Z,33.93
2017-10-20T07:36:44.947Z,25.50
2017-10-20T07:39:12.363Z,26.00
2017-10-20T07:41:39.394Z,25.60
2017-10-20T07:44:05.718Z,29.43
2017-10-20T07:46:32.044Z,26.13
2017-10-20T07:48:58.346Z,33.17
2017-10-20T07:51:24.666Z,33.53
2017-10-20T07:53:52.120Z,36.47
2017-10-20T07:56:19.412Z,28.30
2017-10-20T07:58:46.471Z,37.90
2017-10-20T08:01:13.535Z,32.83
2017-10-20T08:03:39.862Z,41.30
2017-10-20T08:06:06.145Z,30.20
2017-10-20T08:08:32.438Z,28.57
2017-10-20T08:10:58.744Z,29.90
2017-10-20T08:13:25.030Z,31.67
2017-10-20T08:15:51.332Z,27.30
2017-10-20T08:18:17.638Z,29.43
2017-10-20T08:20:44.679Z,27.60
2017-10-20T08:23:11.965Z,29.03
2017-10-20T08:25:38.263Z,27.70
2017-10-20T08:28:04.559Z,24.90
2017-10-20T08:30:30.914Z,26.90
2017-10-20T08:32:57.198Z,27.90
2017-10-20T08:35:24.219Z,30.73
2017-10-20T08:37:50.538Z,25.03
2017-10-20T08:40:16.818Z,23.27
2017-10-20T08:42:43.126Z,25.97
2017-10-20T08:45:11.354Z,21.97
2017-10-20T08:47:37.670Z,29.17
2017-10-20T08:50:04.043Z,22.77
2017-10-20T08:52:30.380Z,31.57
2017-10-20T08:54:56.707Z,23.73
2017-10-20T08:57:23.743Z,30.07
2017-10-20T08:59:51.096Z,26.13
2017-10-20T09:02:17.406Z,22.03
2017-10-20T09:04:43.735Z,23.77
2017-10-20T09:07:10.067Z,27.20
2017-10-20T09:09:37.114Z,30.60
2017-10-20T09:12:03.399Z,31.13
2017-10-20T09:14:29.743Z,27.00
2017-10-20T09:16:56.767Z,25.20
2017-10-20T09:19:23.051Z,25.77
2017-10-20T09:21:49.356Z,24.67
2017-10-20T09:24:15.687Z,24.57
2017-10-20T09:26:42.712Z,21.13
2017-10-20T09:29:10.066Z,19.73
2017-10-20T09:31:36.370Z,23.90
2017-10-20T09:34:02.671Z,26.47
2017-10-20T09:36:29.058Z,20.83
2017-10-20T09:38:55.346Z,24.90
2017-10-20T09:41:22.399Z,23.50
2017-10-20T09:43:49.456Z,22.57
2017-10-20T09:46:15.742Z,26.80
2017-10-20T09:48:42.787Z,20.13
2017-10-20T09:51:09.083Z,16.57
2017-10-20T09:53:35.379Z,17.40
2017-10-20T09:56:01.687Z,18.53
2017-10-20T09:58:28.015Z,24.83
2017-10-20T10:00:54.302Z,16.00
2017-10-20T10:03:21.663Z,17.00
2017-10-20T10:05:47.968Z,15.73
2017-10-20T10:08:14.274Z,14.20
2017-10-20T10:10:41.338Z,15.30
2017-10-20T10:13:08.435Z,15.13
2017-10-20T10:15:35.475Z,13.17
2017-10-20T10:18:01.788Z,17.50
2017-10-20T10:20:28.103Z,18.90
2017-10-20T10:22:55.166Z,17.50
2017-10-20T10:25:22.227Z,18.90
2017-10-20T10:27:48.546Z,21.07
2017-10-20T10:30:15.771Z,15.47
2017-10-20T10:32:42.798Z,15.13
2017-10-20T10:35:09.154Z,17.90
2017-10-20T10:37:35.461Z,16.80
2017-10-20T10:40:02.511Z,18.60
2017-10-20T10:42:28.791Z,14.47
2017-10-20T10:44:55.148Z,13.30
2017-10-20T10:47:21.431Z,21.00
2017-10-20T10:49:47.747Z,10.93
2017-10-20T10:52:14.070Z,12.93
2017-10-20T10:54:40.342Z,16.10
2017-10-20T10:57:06.678Z,13.30
2017-10-20T10:59:33.003Z,14.40
2017-10-20T11:01:59.346Z,14.27
2017-10-20T11:04:25.638Z,12.50
2017-10-20T11:07:04.213Z,11.83
2017-10-20T11:09:30.547Z,9.90
2017-10-20T11:12:09.172Z,10.93
2017-10-20T11:14:35.518Z,6.30
2017-10-20T11:17:01.840Z,6.20
2017-10-20T11:19:28.102Z,2.93
2017-10-20T11:21:54.434Z,3.97
2017-10-20T11:24:21.505Z,12.23
2017-10-20T11:26:47.778Z,3.13
2017-10-20T11:29:14.136Z,3.67
2017-10-20T11:31:40.542Z,2.63
2017-10-20T11:34:06.898Z,3.00
2017-10-20T11:36:33.954Z,3.43
2017-10-20T11:39:00.315Z,1.40
2017-10-20T11:41:26.603Z,2.10
2017-10-20T11:43:53.948Z,1.70
2017-10-20T11:46:20.267Z,2.47
2017-10-20T11:48:46.575Z,1.17
2017-10-20T11:51:12.954Z,2.10
2017-10-20T11:53:40.011Z,1.40
2017-10-20T11:56:07.077Z,2.57
2017-10-20T11:58:35.224Z,1.90
2017-10-20T12:01:01.547Z,1.33
2017-10-20T12:03:28.858Z,2.07
2017-10-20T12:05:55.206Z,4.60
2017-10-20T12:08:21.563Z,1.80
2017-10-20T12:10:47.871Z,3.17
2017-10-20T12:13:14.208Z,0.57
2017-10-20T12:15:40.527Z,2.30
2017-10-20T12:18:06.818Z,2.60
2017-10-20T12:20:33.907Z,1.63
2017-10-20T12:23:00.951Z,0.93
2017-10-20T12:25:27.231Z,5.07
2017-10-20T12:27:53.538Z,0.57
2017-10-20T12:30:19.810Z,7.17
2017-10-20T12:32:47.153Z,1.33
2017-10-20T12:35:13.439Z,6.13
2017-10-20T12:37:39.737Z,1.77
2017-10-20T12:40:06.772Z,2.60
2017-10-20T12:42:33.087Z,3.37
2017-10-20T12:44:59.395Z,1.10
2017-10-20T12:47:25.682Z,0.97
2017-10-20T12:49:52.046Z,6.00
2017-10-20T12:52:18.366Z,6.37
2017-10-20T12:54:44.643Z,7.17
2017-10-20T12:57:10.966Z,3.00
2017-10-20T12:59:37.255Z,4.47
2017-10-20T13:02:05.401Z,1.20
2017-10-20T13:04:31.712Z,2.10
2017-10-20T13:06:58.035Z,6.40
2017-10-20T13:09:24.331Z,3.97
2017-10-20T13:11:50.630Z,3.03
2017-10-20T13:14:17.892Z,4.10
2017-10-20T13:16:44.186Z,1.90
2017-10-20T13:19:10.512Z,2.80
2017-10-20T13:21:36.783Z,4.60
2017-10-20T13:24:03.063Z,2.03
2017-10-20T13:26:29.381Z,7.00
2017-10-20T13:28:55.666Z,2.07
2017-10-20T13:31:21.962Z,2.83
2017-10-20T13:33:48.236Z,1.60
2017-10-20T13:36:14.514Z,4.60
2017-10-20T13:38:40.860Z,3.03
2017-10-20T13:41:07.134Z,1.27
2017-10-20T13:43:34.183Z,3.70
2017-10-20T13:46:01.223Z,2.00
2017-10-20T13:48:27.494Z,3.23
2017-10-20T13:50:53.790Z,4.60
2017-10-20T13:53:20.105Z,3.07
2017-10-20T13:55:47.374Z,1.87
2017-10-20T13:58:13.663Z,2.70
2017-10-20T14:00:40.052Z,1.77
2017-10-20T14:03:06.378Z,1.23
2017-10-20T14:05:33.424Z,0.97
2017-10-20T14:08:00.462Z,7.80
2017-10-20T14:10:26.728Z,2.60
2017-10-20T14:12:53.021Z,3.60
2017-10-20T14:15:19.340Z,2.30
2017-10-20T14:17:45.642Z,1.33
2017-10-20T14:20:12.041Z,2.80
2017-10-20T14:22:38.326Z,2.90
2017-10-20T14:25:04.595Z,2.10
2017-10-20T14:27:31.643Z,1.37
2017-10-20T14:29:58.682Z,2.37
2017-10-20T14:32:24.953Z,3.00
2017-10-20T14:34:51.255Z,4.07
2017-10-20T14:37:17.575Z,4.30
2017-10-20T14:39:44.655Z,3.60
2017-10-20T14:42:10.963Z,2.70
2017-10-20T14:44:37.286Z,5.70
2017-10-20T14:47:04.332Z,4.60
2017-10-20T14:49:30.610Z,4.30
2017-10-20T14:51:56.911Z,1.10
2017-10-20T14:54:23.200Z,3.90
2017-10-20T14:56:49.462Z,2.97
2017-10-20T14:59:15.791Z,7.47
2017-10-20T15:01:42.075Z,2.70
2017-10-20T15:04:09.100Z,3.57
2017-10-20T15:06:35.435Z,5.03
2017-10-20T15:09:01.723Z,1.57
2017-10-20T15:11:28.054Z,2.50
2017-10-20T15:13:54.352Z,2.87
2017-10-20T15:16:21.387Z,1.27
2017-10-20T15:18:47.674Z,3.53
2017-10-20T15:21:14.727Z,1.30
2017-10-20T15:23:42.071Z,2.70
2017-10-20T15:26:08.347Z,4.90
2017-10-20T15:28:34.663Z,5.33
2017-10-20T15:31:00.967Z,2.33
2017-10-20T15:33:27.238Z,2.90
2017-10-20T15:35:54.285Z,3.10
2017-10-20T15:38:20.582Z,4.20
2017-10-20T15:40:46.899Z,8.10
2017-10-20T15:43:14.219Z,2.77
2017-10-20T15:45:40.560Z,2.63
2017-10-20T15:48:06.827Z,4.47
2017-10-20T15:50:33.130Z,4.00
2017-10-20T15:52:59.610Z,3.27
2017-10-20T15:55:26.696Z,4.53
2017-10-20T15:57:52.990Z,8.20
2017-10-20T16:00:19.302Z,2.80
2017-10-20T16:02:46.356Z,3.23
2017-10-20T16:05:12.684Z,6.97
2017-10-20T16:07:40.037Z,2.50
2017-10-20T16:10:06.363Z,0.97
2017-10-20T16:12:33.415Z,2.50
2017-10-20T16:14:59.727Z,4.70
2017-10-20T16:17:26.090Z,2.93
2017-10-20T16:19:52.375Z,4.43
2017-10-20T16:22:18.675Z,7.50
2017-10-20T16:24:44.984Z,4.47
2017-10-20T16:27:11.273Z,1.97
2017-10-20T16:29:37.859Z,2.70
2017-10-20T16:32:04.279Z,4.57
2017-10-20T16:34:30.649Z,1.13
2017-10-20T16:36:56.941Z,8.00
2017-10-20T16:39:23.355Z,5.17
2017-10-20T16:41:49.717Z,4.13
2017-10-20T16:44:16.063Z,2.80
2017-10-20T16:46:43.130Z,2.17
2017-10-20T16:49:09.485Z,5.07
2017-10-20T16:51:35.837Z,2.07
2017-10-20T16:54:02.296Z,6.10
2017-10-20T16:56:29.358Z,4.03
2017-10-20T16:58:56.740Z,5.03
2017-10-20T17:01:23.640Z,2.13
2017-10-20T17:03:50.702Z,2.00
2017-10-20T17:06:18.014Z,5.57
2017-10-20T17:08:45.358Z,2.87
2017-10-20T17:11:12.988Z,2.10
2017-10-20T17:13:40.444Z,6.10
2017-10-20T17:16:07.811Z,6.27
2017-10-20T17:18:35.078Z,1.47
2017-10-20T17:21:02.567Z,6.30
2017-10-20T17:23:29.859Z,3.37
2017-10-20T17:25:57.507Z,9.03
2017-10-20T17:28:25.419Z,7.40
2017-10-20T17:30:52.879Z,3.40
2017-10-20T17:33:20.273Z,3.00
2017-10-20T17:35:48.709Z,6.70
2017-10-20T17:38:16.486Z,13.30
2017-10-20T17:40:44.297Z,8.67
2017-10-20T17:43:12.810Z,6.10
2017-10-20T17:45:40.696Z,8.53
2017-10-20T17:48:08.410Z,7.53
2017-10-20T17:50:36.964Z,6.73
2017-10-20T17:53:04.845Z,3.17
2017-10-20T17:55:33.341Z,6.93
2017-10-20T17:58:01.410Z,3.70
2017-10-20T18:00:29.284Z,2.50
2017-10-20T18:02:57.912Z,4.70
2017-10-20T18:05:26.875Z,4.90
2017-10-20T18:07:54.803Z,6.10
2017-10-20T18:10:23.821Z,4.77
2017-10-20T18:12:52.365Z,5.80
2017-10-20T18:15:21.339Z,3.57
2017-10-20T18:17:49.392Z,4.63
2017-10-20T18:20:17.174Z,3.43
2017-10-20T18:22:45.187Z,10.43
2017-10-20T18:25:13.007Z,2.10
2017-10-20T18:27:40.804Z,9.40
2017-10-20T18:30:09.883Z,2.27
2017-10-20T18:32:38.378Z,5.43
2017-10-20T18:35:07.220Z,2.70
2017-10-20T18:37:36.745Z,5.20
2017-10-20T18:40:07.347Z,3.83
2017-10-20T18:42:36.849Z,8.80
2017-10-20T18:45:07.992Z,5.00
2017-10-20T18:47:36.881Z,4.50
2017-10-20T18:50:05.894Z,7.00
2017-10-20T18:52:34.594Z,5.00
2017-10-20T18:55:02.543Z,6.03
2017-10-20T18:57:31.362Z,6.93
2017-10-20T18:59:59.301Z,3.93
2017-10-20T19:02:27.216Z,6.03
2017-10-20T19:04:56.119Z,5.33
2017-10-20T19:07:24.739Z,7.30
2017-10-20T19:09:53.898Z,7.17
2017-10-20T19:12:21.734Z,6.80
2017-10-20T19:14:50.461Z,7.13
2017-10-20T19:17:19.610Z,8.82
2017-10-20T19:19:49.772Z,7.40
2017-10-20T19:22:18.713Z,8.13
2017-10-20T19:24:46.715Z,5.37
2017-10-20T19:27:14.829Z,11.27
2017-10-20T19:29:43.916Z,5.27
2017-10-20T19:32:12.490Z,10.45
2017-10-20T19:34:41.308Z,3.42
2017-10-20T19:37:09.652Z,5.05
2017-10-20T19:39:37.731Z,8.27
2017-10-20T19:42:05.739Z,4.87
2017-10-20T19:44:33.864Z,3.47
2017-10-20T19:47:01.722Z,6.72
2017-10-20T19:49:29.559Z,5.13
2017-10-20T19:51:58.872Z,5.72
2017-10-20T19:54:26.729Z,5.32
2017-10-20T19:56:54.732Z,3.25
2017-10-20T19:59:22.685Z,10.75
2017-10-20T20:01:50.553Z,5.70
2017-10-20T20:04:18.511Z,5.72
2017-10-20T20:06:46.437Z,2.47
2017-10-20T20:09:14.380Z,14.32
2017-10-20T20:11:42.453Z,3.25
2017-10-20T20:14:10.420Z,4.50
2017-10-20T20:16:38.975Z,7.57
2017-10-20T20:19:07.186Z,2.72
2017-10-20T20:21:35.212Z,3.92
2017-10-20T20:24:03.212Z,4.03
2017-10-20T20:26:31.270Z,4.97
2017-10-20T20:29:00.069Z,6.25
2017-10-20T20:31:44.697Z,4.90
2017-10-20T20:34:18.606Z,4.60
2017-10-20T20:36:46.658Z,5.30
2017-10-20T20:39:14.602Z,4.25
2017-10-20T20:41:42.433Z,4.35
2017-10-20T20:44:11.890Z,5.37
2017-10-20T20:46:39.992Z,4.28
2017-10-20T20:49:08.627Z,6.12
2017-10-20T20:51:37.520Z,6.78
2017-10-20T20:54:07.250Z,4.32
2017-10-20T20:56:35.068Z,10.55
2017-10-20T20:59:02.995Z,7.07
2017-10-20T21:01:31.030Z,4.60
2017-10-20T21:03:58.845Z,6.70
2017-10-20T21:06:26.713Z,5.22
2017-10-20T21:08:54.588Z,7.75
2017-10-20T21:11:22.400Z,6.15
2017-10-20T21:13:50.272Z,4.97
2017-10-20T21:16:18.263Z,7.60
2017-10-20T21:18:46.040Z,4.93
2017-10-20T21:21:14.577Z,8.38
2017-10-20T21:23:43.332Z,9.35
2017-10-20T21:26:11.947Z,5.18
2017-10-20T21:28:39.732Z,11.00
2017-10-20T21:31:07.750Z,9.75
2017-10-20T21:33:35.480Z,4.80
2017-10-20T21:36:03.255Z,10.77
2017-10-20T21:38:31.319Z,6.90
2017-10-20T21:40:59.106Z,8.05
2017-10-20T21:43:26.940Z,6.78
2017-10-20T21:45:54.719Z,5.82
2017-10-20T21:48:22.586Z,4.20
2017-10-20T21:50:50.270Z,6.35
2017-10-20T21:53:18.984Z,4.90
2017-10-20T21:55:47.261Z,7.40
2017-10-20T21:58:14.449Z,5.95
2017-10-20T22:00:41.180Z,4.95
2017-10-20T22:03:07.531Z,13.07
2017-10-20T22:05:33.838Z,12.32
2017-10-20T22:08:00.133Z,7.60
2017-10-20T22:10:26.390Z,7.43
2017-10-20T22:12:52.698Z,4.95
2017-10-20T22:15:19.011Z,6.05
2017-10-20T22:17:45.294Z,3.33
2017-10-20T22:20:11.570Z,5.00
2017-10-20T22:22:37.863Z,7.43
2017-10-20T22:25:04.146Z,4.35
2017-10-20T22:27:30.455Z,3.62
2017-10-20T22:29:56.778Z,7.18
2017-10-20T22:32:23.795Z,3.70
2017-10-20T22:34:50.091Z,6.53
2017-10-20T22:37:16.391Z,10.10
2017-10-20T22:39:42.698Z,6.95
2017-10-20T22:42:08.970Z,6.60
2017-10-20T22:44:35.280Z,7.60
2017-10-20T22:47:01.550Z,9.25
2017-10-20T22:49:28.588Z,6.30
2017-10-20T22:51:54.887Z,8.32
2017-10-20T22:54:21.198Z,6.32
2017-10-20T22:56:47.499Z,6.82
2017-10-20T22:59:15.306Z,7.80
2017-10-20T23:01:41.594Z,4.80
2017-10-20T23:04:07.851Z,6.55
2017-10-20T23:06:34.171Z,4.82
2017-10-20T23:09:00.475Z,4.10
2017-10-20T23:11:26.794Z,4.30
2017-10-20T23:13:53.078Z,4.90
2017-10-20T23:16:20.091Z,5.03
2017-10-20T23:18:46.397Z,6.60
2017-10-20T23:21:12.682Z,5.68
2017-10-20T23:23:38.991Z,4.22
2017-10-20T23:26:05.267Z,4.65
2017-10-20T23:28:31.563Z,4.55
2017-10-20T23:30:58.851Z,4.68
2017-10-20T23:33:25.130Z,5.30
2017-10-20T23:35:52.158Z,12.73
2017-10-20T23:38:18.447Z,7.25
2017-10-20T23:40:44.711Z,4.28
2017-10-20T23:43:11.025Z,4.32
2017-10-20T23:45:37.360Z,5.30
2017-10-20T23:48:03.643Z,5.10
2017-10-20T23:50:29.962Z,3.40
2017-10-20T23:52:56.246Z,8.93
2017-10-20T23:55:23.604Z,4.28
2017-10-20T23:57:49.911Z,5.03
